Long Branch, Texas
Current Conditions -  °F | °C
As of 11:15 AM on Thursday 30 Oct 2014 (Local Time) from KRFI Reporting Station
Clear Clear  
Wind Chill: 19°   Ceiling: Unl
Heat Index: 19°   Visibility: 10mi
Dew Point:   Wind: 7mph
Humidity: 45%   Direction: 130°SE
Pressure: 30.2"   Gusts: NA
Location:  32°N, 94.53°W
Report Text: KRFI 301615Z AUTO 13006KT 10SM CLR 19/07 A3020 RMK AO2 T01910069
Loading
Personal Weather Stations






























Interactive Weather Map
Tropical Storm Tracking
New forecast layout! Learn more

10-Day Weather Forecast

Advertisements
Track Severe Weather on mobile